createdAt,value
2018-06-08T00:02:04.199Z,22.80
2018-06-08T00:04:32.518Z,22.80
2018-06-08T00:07:00.795Z,22.80
2018-06-08T00:09:29.018Z,22.80
2018-06-08T00:11:57.327Z,22.80
2018-06-08T00:14:25.572Z,22.80
2018-06-08T00:16:53.846Z,22.80
2018-06-08T00:19:22.085Z,22.80
2018-06-08T00:21:50.447Z,22.80
2018-06-08T00:24:18.714Z,22.90
2018-06-08T00:26:47.026Z,22.80
2018-06-08T00:29:15.274Z,22.90
2018-06-08T00:31:43.522Z,22.80
2018-06-08T00:34:11.861Z,22.80
2018-06-08T00:36:40.146Z,22.80
2018-06-08T00:39:09.650Z,22.80
2018-06-08T00:41:37.878Z,22.80
2018-06-08T00:44:06.140Z,22.80
2018-06-08T00:46:34.333Z,22.80
2018-06-08T00:49:02.607Z,22.80
2018-06-08T00:51:31.698Z,22.80
2018-06-08T00:53:59.943Z,22.80
2018-06-08T00:56:39.633Z,22.80
2018-06-08T00:59:12.812Z,22.80
2018-06-08T01:01:41.056Z,22.80
2018-06-08T01:04:09.401Z,22.80
2018-06-08T01:06:37.698Z,22.80
2018-06-08T01:09:08.614Z,22.70
2018-06-08T01:11:37.066Z,22.70
2018-06-08T01:14:05.445Z,22.70
2018-06-08T01:16:34.664Z,22.70
2018-06-08T01:19:02.955Z,22.70
2018-06-08T01:21:31.284Z,22.70
2018-06-08T01:23:59.554Z,22.80
2018-06-08T01:26:27.793Z,22.80
2018-06-08T01:28:56.042Z,22.80
2018-06-08T01:31:24.301Z,22.70
2018-06-08T01:33:52.566Z,22.70
2018-06-08T01:36:20.815Z,22.70
2018-06-08T01:38:49.101Z,22.60
2018-06-08T01:41:17.455Z,22.60
2018-06-08T01:43:45.675Z,22.60
2018-06-08T01:46:13.961Z,22.60
2018-06-08T01:48:42.231Z,22.70
2018-06-08T01:51:10.478Z,22.70
2018-06-08T01:53:38.806Z,22.70
2018-06-08T01:56:07.044Z,22.70
2018-06-08T01:58:35.362Z,22.70
2018-06-08T02:01:03.603Z,22.70
2018-06-08T02:03:31.894Z,22.70
2018-06-08T02:06:00.194Z,22.80
2018-06-08T02:08:28.426Z,22.80
2018-06-08T02:10:56.613Z,22.80
2018-06-08T02:13:24.953Z,22.80
2018-06-08T02:15:53.179Z,22.80
2018-06-08T02:18:21.442Z,22.80
2018-06-08T02:20:49.723Z,22.80
2018-06-08T02:23:18.102Z,22.80
2018-06-08T02:25:46.370Z,22.90
2018-06-08T02:28:14.665Z,22.80
2018-06-08T02:30:42.910Z,22.80
2018-06-08T02:33:11.180Z,22.80
2018-06-08T02:35:39.445Z,22.80
2018-06-08T02:38:07.744Z,22.80
2018-06-08T02:40:35.994Z,22.80
2018-06-08T02:43:04.286Z,22.80
2018-06-08T02:45:32.679Z,22.70
2018-06-08T02:48:00.958Z,22.60
2018-06-08T02:50:29.243Z,22.50
2018-06-08T02:52:57.490Z,22.40
2018-06-08T02:55:26.026Z,22.50
2018-06-08T02:57:54.255Z,22.50
2018-06-08T03:02:50.595Z,22.60
2018-06-08T03:05:19.436Z,22.50
2018-06-08T03:07:47.711Z,22.50
2018-06-08T03:10:15.958Z,22.40
2018-06-08T03:12:44.232Z,22.40
2018-06-08T03:15:12.534Z,22.40
2018-06-08T03:17:40.878Z,22.40
2018-06-08T03:20:09.122Z,22.40
2018-06-08T03:22:37.360Z,22.40
2018-06-08T03:25:05.691Z,22.50
2018-06-08T03:27:34.092Z,22.50
2018-06-08T03:30:02.350Z,22.60
2018-06-08T03:32:30.584Z,22.60
2018-06-08T03:34:59.886Z,22.60
2018-06-08T03:37:28.199Z,22.60
2018-06-08T03:39:56.454Z,22.60
2018-06-08T03:42:24.743Z,22.60
2018-06-08T03:44:53.006Z,22.60
2018-06-08T03:47:21.306Z,22.60
2018-06-08T03:49:49.559Z,22.60
2018-06-08T03:52:17.842Z,22.60
2018-06-08T03:54:46.111Z,22.60
2018-06-08T03:57:14.395Z,22.50
2018-06-08T03:59:42.657Z,22.50
2018-06-08T04:02:10.880Z,22.50
2018-06-08T04:04:39.118Z,22.50
2018-06-08T04:07:07.396Z,22.50
2018-06-08T04:09:35.733Z,22.60
2018-06-08T04:12:04.052Z,22.60
2018-06-08T04:14:32.411Z,22.60
2018-06-08T04:17:00.727Z,22.70
2018-06-08T04:19:29.034Z,22.70
2018-06-08T04:21:57.499Z,22.70
2018-06-08T04:24:25.736Z,22.70
2018-06-08T04:26:54.004Z,22.70
2018-06-08T04:29:22.325Z,22.70
2018-06-08T04:31:50.582Z,22.70
2018-06-08T04:34:18.813Z,22.70
2018-06-08T04:36:47.220Z,22.70
2018-06-08T04:39:15.501Z,22.70
2018-06-08T04:41:43.830Z,22.70
2018-06-08T04:44:12.592Z,22.70
2018-06-08T04:46:41.017Z,22.70
2018-06-08T04:49:09.349Z,22.70
2018-06-08T04:51:37.698Z,22.70
2018-06-08T04:54:05.980Z,22.70
2018-06-08T04:56:34.315Z,22.70
2018-06-08T04:59:02.806Z,22.70
2018-06-08T05:01:31.286Z,22.70
2018-06-08T05:03:59.806Z,22.70
2018-06-08T05:06:28.194Z,22.60
2018-06-08T05:08:56.482Z,22.70
2018-06-08T05:11:24.835Z,22.70
2018-06-08T05:13:53.111Z,22.70
2018-06-08T05:16:22.047Z,22.70
2018-06-08T05:18:50.411Z,22.80
2018-06-08T05:21:18.923Z,22.80
2018-06-08T05:23:47.295Z,23.00
2018-06-08T05:26:15.686Z,23.10
2018-06-08T05:28:44.148Z,23.10
2018-06-08T05:31:12.353Z,23.20
2018-06-08T05:33:40.654Z,23.30
2018-06-08T05:36:08.968Z,23.30
2018-06-08T05:38:37.344Z,23.30
2018-06-08T05:41:05.703Z,23.30
2018-06-08T05:46:02.079Z,23.40
2018-06-08T05:48:30.379Z,23.40
2018-06-08T05:50:58.621Z,23.40
2018-06-08T05:53:26.848Z,23.40
2018-06-08T05:55:55.090Z,23.50
2018-06-08T05:58:23.322Z,23.60
2018-06-08T06:00:51.563Z,23.60
2018-06-08T06:03:19.787Z,23.70
2018-06-08T06:05:48.028Z,23.80
2018-06-08T06:08:16.335Z,23.90
2018-06-08T06:10:44.542Z,24.00
2018-06-08T06:13:12.818Z,24.00
2018-06-08T06:15:41.027Z,24.10
2018-06-08T06:18:09.266Z,24.20
2018-06-08T06:20:37.520Z,24.20
2018-06-08T06:23:05.758Z,24.30
2018-06-08T06:25:34.006Z,24.40
2018-06-08T06:28:02.249Z,24.50
2018-06-08T06:30:30.477Z,24.40
2018-06-08T06:32:58.682Z,24.50
2018-06-08T06:35:26.860Z,24.50
2018-06-08T06:37:55.172Z,24.40
2018-06-08T06:40:23.376Z,24.30
2018-06-08T06:42:51.625Z,24.30
2018-06-08T06:45:19.953Z,24.20
2018-06-08T06:47:48.189Z,24.20
2018-06-08T06:50:16.405Z,24.20
2018-06-08T06:52:44.670Z,24.20
2018-06-08T06:55:12.885Z,24.20
2018-06-08T06:57:41.148Z,24.30
2018-06-08T07:00:09.517Z,24.20
2018-06-08T07:02:37.805Z,24.30
2018-06-08T07:05:06.224Z,24.20
2018-06-08T07:07:34.476Z,24.20
2018-06-08T07:10:02.739Z,24.20
2018-06-08T07:12:31.032Z,24.20
2018-06-08T07:14:59.363Z,24.20
2018-06-08T07:17:28.354Z,24.50
2018-06-08T07:19:56.778Z,24.60
2018-06-08T07:22:25.023Z,24.60
2018-06-08T07:24:53.302Z,24.70
2018-06-08T07:27:21.632Z,24.80
2018-06-08T07:29:49.882Z,25.00
2018-06-08T07:32:18.150Z,25.00
2018-06-08T07:34:46.406Z,24.90
2018-06-08T07:39:42.848Z,25.00
2018-06-08T07:42:11.099Z,25.10
2018-06-08T07:44:39.371Z,25.10
2018-06-08T07:47:07.677Z,25.30
2018-06-08T07:49:35.888Z,25.40
2018-06-08T07:52:04.202Z,25.50
2018-06-08T07:54:32.650Z,25.60
2018-06-08T07:57:03.042Z,25.70
2018-06-08T07:59:31.536Z,25.70
2018-06-08T08:02:00.027Z,25.80
2018-06-08T08:04:28.352Z,25.80
2018-06-08T08:06:56.833Z,25.70
2018-06-08T08:09:25.087Z,25.60
2018-06-08T08:11:53.390Z,25.50
2018-06-08T08:14:21.639Z,25.60
2018-06-08T08:16:49.873Z,25.60
2018-06-08T08:19:18.209Z,25.50
2018-06-08T08:21:46.484Z,25.60
2018-06-08T08:24:15.046Z,25.60
2018-06-08T08:26:43.386Z,25.60
2018-06-08T08:31:39.610Z,25.00
2018-06-08T08:34:07.896Z,24.80
2018-06-08T08:36:36.222Z,24.70
2018-06-08T08:39:07.707Z,24.60
2018-06-08T08:41:35.945Z,24.60
2018-06-08T08:44:05.090Z,24.50
2018-06-08T08:46:33.435Z,24.40
2018-06-08T08:49:01.872Z,24.40
2018-06-08T08:51:30.253Z,24.40
2018-06-08T08:53:58.542Z,24.30
2018-06-08T08:56:26.860Z,24.10
2018-06-08T08:58:55.111Z,24.00
2018-06-08T09:01:23.374Z,24.00
2018-06-08T09:03:51.978Z,23.90
2018-06-08T09:06:20.229Z,23.60
2018-06-08T09:08:48.506Z,23.30
2018-06-08T09:11:16.710Z,23.20
2018-06-08T09:13:45.054Z,23.20
2018-06-08T09:16:13.275Z,23.20
2018-06-08T09:18:41.514Z,23.20
2018-06-08T09:21:09.753Z,23.10
2018-06-08T09:23:37.971Z,23.00
2018-06-08T09:26:06.184Z,22.80
2018-06-08T09:28:34.462Z,22.70
2018-06-08T09:31:02.750Z,22.70
2018-06-08T09:33:31.719Z,22.70
2018-06-08T09:36:00.038Z,22.60
2018-06-08T09:38:28.282Z,22.40
2018-06-08T09:40:56.589Z,22.40
2018-06-08T09:43:24.835Z,22.30
2018-06-08T09:45:53.140Z,22.30
2018-06-08T09:48:21.317Z,22.30
2018-06-08T09:50:49.539Z,22.40
2018-06-08T09:53:17.777Z,22.60
2018-06-08T09:55:46.056Z,22.50
2018-06-08T09:58:14.322Z,22.50
2018-06-08T10:00:43.330Z,22.40
2018-06-08T10:03:11.664Z,23.40
2018-06-08T10:05:39.870Z,22.50
2018-06-08T10:08:08.275Z,22.50
2018-06-08T10:10:36.578Z,22.40
2018-06-08T10:13:04.824Z,22.40
2018-06-08T10:15:33.075Z,22.40
2018-06-08T10:20:29.388Z,22.50
2018-06-08T10:22:57.621Z,22.40
2018-06-08T10:25:25.884Z,22.30
2018-06-08T10:27:54.114Z,22.20
2018-06-08T10:30:22.357Z,22.30
2018-06-08T10:32:50.593Z,22.40
2018-06-08T10:35:18.803Z,22.40
2018-06-08T10:37:47.034Z,22.40
2018-06-08T10:40:15.258Z,22.50
2018-06-08T10:42:43.519Z,22.60
2018-06-08T10:45:11.750Z,23.20
2018-06-08T10:47:40.035Z,22.50
2018-06-08T10:50:08.282Z,22.50
2018-06-08T10:52:36.540Z,22.50
2018-06-08T10:55:05.050Z,22.60
2018-06-08T10:57:33.361Z,22.60
2018-06-08T11:00:01.646Z,22.60
2018-06-08T11:02:30.068Z,22.60
2018-06-08T11:04:58.323Z,22.70
2018-06-08T11:07:26.598Z,22.70
2018-06-08T11:09:54.869Z,22.60
2018-06-08T11:12:23.135Z,22.70
2018-06-08T11:14:51.410Z,22.70
2018-06-08T11:17:19.694Z,22.50
2018-06-08T11:19:47.996Z,22.40
2018-06-08T11:22:16.218Z,22.40
2018-06-08T11:24:44.566Z,22.20
2018-06-08T11:27:12.888Z,22.10
2018-06-08T11:29:41.178Z,22.10
2018-06-08T11:32:09.434Z,22.10
2018-06-08T11:34:37.666Z,22.00
2018-06-08T11:37:05.915Z,22.00
2018-06-08T11:39:41.428Z,22.10
2018-06-08T11:42:09.866Z,22.20
2018-06-08T11:44:38.090Z,22.20
2018-06-08T11:47:06.365Z,22.20
2018-06-08T11:49:34.594Z,22.30
2018-06-08T11:52:02.883Z,22.30
2018-06-08T11:54:31.153Z,22.30
2018-06-08T11:56:59.471Z,22.50
2018-06-08T11:59:27.725Z,22.50
2018-06-08T12:01:55.978Z,22.50
2018-06-08T12:04:24.246Z,22.50
2018-06-08T12:06:52.545Z,22.60
2018-06-08T12:09:20.812Z,22.70
2018-06-08T12:11:49.053Z,22.80
2018-06-08T12:14:17.326Z,22.90
2018-06-08T12:16:45.657Z,23.00
2018-06-08T12:19:13.905Z,23.10
2018-06-08T12:21:42.313Z,23.40
2018-06-08T12:24:10.558Z,23.70
2018-06-08T12:26:38.849Z,24.10
2018-06-08T12:29:07.062Z,24.40
2018-06-08T12:31:35.302Z,24.60
2018-06-08T12:34:03.676Z,24.80
2018-06-08T12:36:31.889Z,24.70
2018-06-08T12:39:00.145Z,24.90
2018-06-08T12:41:28.361Z,25.00
2018-06-08T12:43:56.612Z,24.80
2018-06-08T12:46:24.878Z,24.40
2018-06-08T12:48:53.203Z,24.40
2018-06-08T12:51:21.448Z,24.50
2018-06-08T12:53:49.668Z,24.70
2018-06-08T12:56:17.934Z,25.00
2018-06-08T12:58:46.350Z,25.30
2018-06-08T13:01:14.622Z,25.60
2018-06-08T13:03:43.267Z,25.60
2018-06-08T13:06:11.553Z,25.80
2018-06-08T13:08:39.782Z,25.90
2018-06-08T13:11:08.006Z,25.90
2018-06-08T13:13:36.278Z,25.70
2018-06-08T13:16:04.554Z,25.70
2018-06-08T13:18:32.841Z,25.60
2018-06-08T13:21:01.194Z,25.40
2018-06-08T13:23:29.582Z,25.30
2018-06-08T13:25:57.953Z,25.20
2018-06-08T13:28:26.284Z,25.30
2018-06-08T13:30:54.548Z,25.50
2018-06-08T13:33:22.903Z,25.70
2018-06-08T13:35:51.158Z,25.80
2018-06-08T13:38:19.473Z,25.90
2018-06-08T13:40:47.786Z,25.80
2018-06-08T13:43:16.021Z,25.60
2018-06-08T13:45:44.282Z,25.40
2018-06-08T13:48:12.512Z,25.20
2018-06-08T13:50:40.732Z,25.10
2018-06-08T13:53:09.071Z,25.00
2018-06-08T13:55:37.308Z,24.90
2018-06-08T13:58:05.594Z,24.70
2018-06-08T14:00:33.837Z,24.70
2018-06-08T14:03:02.109Z,24.70
2018-06-08T14:05:30.380Z,25.10
2018-06-08T14:07:58.623Z,25.30
2018-06-08T14:10:26.855Z,25.40
2018-06-08T14:12:55.121Z,25.30
2018-06-08T14:15:23.374Z,25.40
2018-06-08T14:17:51.590Z,25.40
2018-06-08T14:20:19.845Z,25.60
2018-06-08T14:22:48.055Z,25.70
2018-06-08T14:25:16.266Z,25.80
2018-06-08T14:27:44.566Z,25.80
2018-06-08T14:30:12.796Z,25.90
2018-06-08T14:32:41.011Z,26.10
2018-06-08T14:35:09.232Z,26.00
2018-06-08T14:37:37.498Z,26.10
2018-06-08T14:40:05.722Z,26.10
2018-06-08T14:42:34.019Z,26.00
2018-06-08T14:45:02.238Z,26.10
2018-06-08T14:47:30.511Z,26.10
2018-06-08T14:49:59.016Z,26.30
2018-06-08T14:52:27.302Z,26.40
2018-06-08T14:54:55.618Z,26.00
2018-06-08T14:57:26.329Z,25.90
2018-06-08T14:59:54.604Z,25.70
2018-06-08T15:02:22.854Z,25.60
2018-06-08T15:04:51.095Z,25.60
2018-06-08T15:07:19.374Z,25.70
2018-06-08T15:09:47.650Z,25.80
2018-06-08T15:12:15.900Z,25.90
2018-06-08T15:14:44.153Z,26.00
2018-06-08T15:17:12.407Z,25.80
2018-06-08T15:19:40.887Z,25.70
2018-06-08T15:22:09.127Z,25.70
2018-06-08T15:24:37.388Z,25.70
2018-06-08T15:27:05.770Z,25.80
2018-06-08T15:29:34.042Z,25.80
2018-06-08T15:32:02.309Z,25.50
2018-06-08T15:34:30.656Z,25.50
2018-06-08T15:36:58.946Z,25.50
2018-06-08T15:39:27.246Z,25.60
2018-06-08T15:41:55.643Z,25.70
2018-06-08T15:44:23.864Z,25.70
2018-06-08T15:46:52.130Z,25.70
2018-06-08T15:49:20.489Z,25.50
2018-06-08T15:51:50.065Z,25.30
2018-06-08T15:54:18.588Z,25.30
2018-06-08T15:56:46.868Z,25.40
2018-06-08T15:59:15.228Z,25.30
2018-06-08T16:01:43.474Z,25.20
2018-06-08T16:04:11.935Z,25.20
2018-06-08T16:06:40.238Z,27.10
2018-06-08T16:09:08.521Z,25.00
2018-06-08T16:11:36.878Z,24.90
2018-06-08T16:14:05.237Z,24.80
2018-06-08T16:16:33.457Z,24.70
2018-06-08T16:19:01.699Z,24.70
2018-06-08T16:21:30.230Z,24.80
2018-06-08T16:23:58.600Z,24.90
2018-06-08T16:26:26.869Z,25.00
2018-06-08T16:28:55.151Z,25.00
2018-06-08T16:31:23.459Z,25.00
2018-06-08T16:33:51.695Z,25.10
2018-06-08T16:36:20.003Z,25.20
2018-06-08T16:38:48.566Z,25.30
2018-06-08T16:41:16.862Z,25.40
2018-06-08T16:43:45.098Z,25.30
2018-06-08T16:46:13.373Z,25.30
2018-06-08T16:48:41.699Z,25.20
2018-06-08T16:51:11.178Z,25.30
2018-06-08T16:53:40.146Z,25.20
2018-06-08T16:56:08.387Z,25.20
2018-06-08T16:58:36.618Z,25.10
2018-06-08T17:01:04.861Z,25.10
2018-06-08T17:03:33.112Z,25.20
2018-06-08T17:06:01.484Z,25.30
2018-06-08T17:08:29.732Z,25.40
2018-06-08T17:10:58.102Z,25.30
2018-06-08T17:13:26.599Z,25.30
2018-06-08T17:15:54.803Z,25.40
2018-06-08T17:18:23.120Z,25.40
2018-06-08T17:20:51.535Z,25.30
2018-06-08T17:23:19.859Z,25.20
2018-06-08T17:25:48.105Z,25.10
2018-06-08T17:28:16.391Z,25.00
2018-06-08T17:30:44.662Z,25.00
2018-06-08T17:33:12.908Z,25.00
2018-06-08T17:35:47.643Z,25.00
2018-06-08T17:38:15.877Z,25.00
2018-06-08T17:40:44.244Z,24.90
2018-06-08T17:43:12.491Z,24.80
2018-06-08T17:45:40.739Z,24.70
2018-06-08T17:48:09.075Z,24.60
2018-06-08T17:50:37.454Z,24.60
2018-06-08T17:53:05.781Z,24.50
2018-06-08T17:55:33.993Z,24.50
2018-06-08T17:58:02.454Z,24.50
2018-06-08T18:00:30.765Z,24.50
2018-06-08T18:02:59.718Z,24.50
2018-06-08T18:05:27.941Z,24.50
2018-06-08T18:07:56.243Z,24.50
2018-06-08T18:10:24.470Z,24.50
2018-06-08T18:12:52.699Z,24.50
2018-06-08T18:15:20.935Z,24.40
2018-06-08T18:17:49.272Z,24.40
2018-06-08T18:20:17.493Z,24.40
2018-06-08T18:22:46.276Z,24.40
2018-06-08T18:25:14.508Z,24.20
2018-06-08T18:27:42.789Z,24.20
2018-06-08T18:30:11.070Z,24.20
2018-06-08T18:32:39.345Z,24.30
2018-06-08T18:35:07.646Z,24.30
2018-06-08T18:37:35.946Z,24.20
2018-06-08T18:40:04.521Z,24.20
2018-06-08T18:42:32.793Z,24.10
2018-06-08T18:45:01.088Z,24.10
2018-06-08T18:47:29.376Z,24.10
2018-06-08T18:49:57.720Z,24.00
2018-06-08T18:52:25.972Z,24.00
2018-06-08T18:54:54.245Z,24.00
2018-06-08T18:57:22.588Z,23.90
2018-06-08T18:59:51.073Z,23.80
2018-06-08T19:02:19.330Z,23.80
2018-06-08T19:04:47.599Z,23.80
2018-06-08T19:07:15.924Z,23.80
2018-06-08T19:09:44.140Z,23.80
2018-06-08T19:12:12.449Z,23.80
2018-06-08T19:14:40.721Z,23.80
2018-06-08T19:17:08.975Z,23.80
2018-06-08T19:19:37.241Z,23.90
2018-06-08T19:22:05.486Z,24.00
2018-06-08T19:24:33.738Z,24.00
2018-06-08T19:27:01.982Z,24.00
2018-06-08T19:29:30.198Z,24.00
2018-06-08T19:31:58.445Z,24.00
2018-06-08T19:34:26.702Z,24.00
2018-06-08T19:36:55.014Z,23.90
2018-06-08T19:39:23.277Z,23.90
2018-06-08T19:41:51.559Z,23.80
2018-06-08T19:44:19.770Z,23.80
2018-06-08T19:46:47.986Z,23.90
2018-06-08T19:49:17.074Z,23.90
2018-06-08T19:51:45.321Z,23.80
2018-06-08T19:54:13.843Z,23.90
2018-06-08T19:56:42.059Z,23.90
2018-06-08T19:59:10.390Z,23.90
2018-06-08T20:01:38.631Z,23.90
2018-06-08T20:04:07.077Z,23.80
2018-06-08T20:06:35.319Z,23.80
2018-06-08T20:09:04.947Z,23.80
2018-06-08T20:11:33.252Z,23.80
2018-06-08T20:14:01.522Z,23.80
2018-06-08T20:16:29.853Z,23.80
2018-06-08T20:18:58.149Z,23.80
2018-06-08T20:21:26.416Z,23.80
2018-06-08T20:23:54.705Z,23.80
2018-06-08T20:26:22.980Z,23.70
2018-06-08T20:28:51.607Z,23.70
2018-06-08T20:31:19.941Z,23.70
2018-06-08T20:33:48.312Z,23.60
2018-06-08T20:36:16.767Z,23.50
2018-06-08T20:38:45.842Z,23.50
2018-06-08T20:41:14.166Z,23.40
2018-06-08T20:43:42.432Z,23.30
2018-06-08T20:46:10.784Z,23.30
2018-06-08T20:48:39.149Z,23.20
2018-06-08T20:51:07.614Z,23.20
2018-06-08T20:53:36.088Z,23.20
2018-06-08T20:56:04.576Z,23.20
2018-06-08T20:58:32.943Z,23.20
2018-06-08T21:01:01.289Z,23.20
2018-06-08T21:03:29.690Z,23.20
2018-06-08T21:05:58.079Z,23.10
2018-06-08T21:08:26.354Z,23.10
2018-06-08T21:10:54.663Z,23.10
2018-06-08T21:13:22.899Z,23.00
2018-06-08T21:15:51.203Z,23.00
2018-06-08T21:18:19.483Z,23.00
2018-06-08T21:20:47.712Z,23.00
2018-06-08T21:23:16.025Z,23.00
2018-06-08T21:25:44.341Z,23.00
2018-06-08T21:28:13.848Z,22.90
2018-06-08T21:30:42.143Z,22.90
2018-06-08T21:33:10.951Z,22.90
2018-06-08T21:35:39.521Z,22.80
2018-06-08T21:38:07.920Z,22.80
2018-06-08T21:40:36.170Z,22.80
2018-06-08T21:43:05.322Z,22.80
2018-06-08T21:45:34.703Z,22.80
2018-06-08T21:48:02.980Z,22.80
2018-06-08T21:50:31.297Z,22.80
2018-06-08T21:52:59.590Z,22.80
2018-06-08T21:55:27.922Z,22.80
2018-06-08T21:57:56.162Z,22.80
2018-06-08T22:00:24.527Z,22.80
2018-06-08T22:02:52.773Z,22.90
2018-06-08T22:05:21.289Z,22.90
2018-06-08T22:07:49.587Z,22.90
2018-06-08T22:10:17.858Z,22.90
2018-06-08T22:12:46.062Z,22.90
2018-06-08T22:15:14.395Z,22.90
2018-06-08T22:17:42.883Z,22.80
2018-06-08T22:20:11.299Z,22.80
2018-06-08T22:22:39.531Z,22.80
2018-06-08T22:25:08.208Z,22.80
2018-06-08T22:27:36.462Z,22.80
2018-06-08T22:30:04.857Z,22.80
2018-06-08T22:32:33.961Z,22.80
2018-06-08T22:35:02.280Z,22.80
2018-06-08T22:37:30.531Z,22.80
2018-06-08T22:39:59.001Z,22.70
2018-06-08T22:42:27.683Z,22.60
2018-06-08T22:44:56.111Z,22.60
2018-06-08T22:47:24.369Z,22.60
2018-06-08T22:49:52.672Z,22.60
2018-06-08T22:52:21.130Z,22.60
2018-06-08T22:54:49.856Z,22.60
2018-06-08T22:57:18.069Z,22.60
2018-06-08T22:59:46.323Z,22.50
2018-06-08T23:02:14.656Z,22.60
2018-06-08T23:04:44.149Z,22.50
2018-06-08T23:07:12.539Z,22.50
2018-06-08T23:09:40.823Z,22.40
2018-06-08T23:12:09.141Z,22.40
2018-06-08T23:14:37.471Z,22.40
2018-06-08T23:17:05.877Z,22.40
2018-06-08T23:19:34.209Z,22.40
2018-06-08T23:22:02.511Z,22.40
2018-06-08T23:24:30.895Z,22.40
2018-06-08T23:26:59.161Z,22.40
2018-06-08T23:29:27.553Z,22.40
2018-06-08T23:31:56.032Z,22.50
2018-06-08T23:34:24.310Z,22.50
2018-06-08T23:36:53.268Z,22.50
2018-06-08T23:39:21.588Z,22.60
2018-06-08T23:41:51.123Z,22.60
2018-06-08T23:44:19.574Z,22.50
2018-06-08T23:46:47.873Z,22.60
2018-06-08T23:49:16.213Z,22.50
2018-06-08T23:51:44.536Z,22.50
2018-06-08T23:54:12.813Z,22.50
2018-06-08T23:56:41.311Z,22.40
2018-06-08T23:59:09.583Z,22.40
